Time;durP1;ratioP1;P1;durP2;ratioP2;P2;SDS_P1;SDS_P2;PMS_P1;PMS_P2;Temp;Humidity;BMP_temperature;BMP_pressure;BME280_temperature;BME280_humidity;BME280_pressure;Samples;Min_cycle;Max_cycle;Signal;HPM_P1;HPM_P2
2021/01/26 00:01:38;;;;;;;17.23;4.20;;;4.00;95.80;;;;;;4387479;32;20205;-64
2021/01/26 00:04:05;;;;;;;15.30;4.03;;;4.10;95.70;;;;;;4396151;32;20216;-65
2021/01/26 00:06:31;;;;;;;17.00;3.53;;;4.20;95.60;;;;;;4396351;32;20484;-65
2021/01/26 00:08:57;;;;;;;22.00;3.90;;;4.20;95.50;;;;;;4394247;32;20592;-66
2021/01/26 00:11:24;;;;;;;25.50;5.63;;;4.10;95.40;;;;;;4391703;32;20187;-64
2021/01/26 00:13:50;;;;;;;20.67;4.97;;;4.10;95.40;;;;;;4398577;32;20208;-64
2021/01/26 00:16:17;;;;;;;14.67;3.70;;;4.00;95.20;;;;;;4406420;32;20564;-64
2021/01/26 00:18:44;;;;;;;14.03;3.63;;;3.70;95.40;;;;;;4383970;32;20150;-65
2021/01/26 00:21:10;;;;;;;20.43;3.80;;;3.70;95.80;;;;;;4396242;32;20156;-65
2021/01/26 00:23:37;;;;;;;18.23;3.57;;;3.60;95.80;;;;;;4397661;32;20250;-65
2021/01/26 00:26:03;;;;;;;15.37;3.73;;;3.60;95.70;;;;;;4404122;32;20216;-65
2021/01/26 00:28:29;;;;;;;20.93;3.47;;;3.60;95.80;;;;;;4393086;32;20175;-65
2021/01/26 00:30:56;;;;;;;14.27;3.17;;;3.60;96.00;;;;;;4401829;32;20205;-65
2021/01/26 00:33:24;;;;;;;18.00;3.53;;;3.60;96.00;;;;;;4396199;32;20175;-65
2021/01/26 00:35:51;;;;;;;14.27;3.43;;;3.70;96.10;;;;;;4405808;32;20153;-65
2021/01/26 00:38:18;;;;;;;16.27;3.23;;;3.80;96.50;;;;;;4402479;32;20153;-65
2021/01/26 00:40:47;;;;;;;17.03;3.57;;;4.00;96.30;;;;;;4390665;32;20153;-67
2021/01/26 00:43:15;;;;;;;11.50;3.00;;;4.10;95.90;;;;;;4379297;32;20813;-64
2021/01/26 00:45:41;;;;;;;18.07;3.00;;;4.00;95.80;;;;;;4395044;32;20282;-64
2021/01/26 00:48:08;;;;;;;15.90;2.70;;;4.00;95.80;;;;;;4384699;32;20840;-65
2021/01/26 00:50:36;;;;;;;7.93;1.70;;;4.00;95.50;;;;;;4380306;32;20208;-66
2021/01/26 00:53:02;;;;;;;10.97;1.87;;;3.80;95.10;;;;;;4398042;32;20211;-67
2021/01/26 00:55:28;;;;;;;8.97;1.77;;;3.60;95.00;;;;;;4400832;32;20204;-66
2021/01/26 00:57:56;;;;;;;9.73;2.00;;;3.60;94.90;;;;;;4392653;32;20176;-64
2021/01/26 01:00:25;;;;;;;15.77;1.70;;;3.50;95.10;;;;;;4390985;32;20275;-65
2021/01/26 01:02:52;;;;;;;11.80;1.77;;;3.40;95.10;;;;;;4403692;32;20230;-68
2021/01/26 01:05:19;;;;;;;14.00;1.70;;;3.40;95.20;;;;;;4393351;32;20199;-66
2021/01/26 01:07:48;;;;;;;8.90;2.27;;;3.30;95.20;;;;;;4390663;32;20172;-66
2021/01/26 01:10:16;;;;;;;7.83;1.83;;;3.30;95.20;;;;;;4400705;32;20176;-63
2021/01/26 01:12:43;;;;;;;11.07;1.70;;;3.20;95.20;;;;;;4398743;32;20221;-64
2021/01/26 01:15:10;;;;;;;12.73;2.23;;;3.20;95.20;;;;;;4395246;32;20220;-64
2021/01/26 01:17:37;;;;;;;8.83;1.80;;;3.10;95.20;;;;;;4390974;32;20196;-64
2021/01/26 01:20:06;;;;;;;8.57;1.70;;;3.10;95.20;;;;;;4399294;32;20531;-65
2021/01/26 01:22:32;;;;;;;14.20;2.37;;;3.10;95.20;;;;;;4389127;32;20168;-65
2021/01/26 01:24:59;;;;;;;5.77;1.20;;;3.20;95.00;;;;;;4397681;32;20219;-65
2021/01/26 01:27:26;;;;;;;11.67;1.80;;;3.20;95.20;;;;;;4405696;32;20238;-66
2021/01/26 01:29:52;;;;;;;9.73;2.63;;;3.20;95.10;;;;;;4390843;32;20557;-65
2021/01/26 01:32:18;;;;;;;10.83;2.40;;;3.20;94.70;;;;;;4401424;32;20546;-65
2021/01/26 01:34:45;;;;;;;10.37;2.00;;;3.20;94.60;;;;;;4386381;32;20180;-65
2021/01/26 01:37:11;;;;;;;17.87;2.00;;;3.10;94.70;;;;;;4385655;32;20168;-66
2021/01/26 01:39:37;;;;;;;11.00;1.93;;;3.00;94.80;;;;;;4391078;32;20239;-64
2021/01/26 01:42:08;;;;;;;12.80;2.40;;;3.10;94.90;;;;;;4389128;32;20227;-64
2021/01/26 01:44:34;;;;;;;13.63;1.93;;;3.00;95.00;;;;;;4383137;32;20780;-64
2021/01/26 01:47:02;;;;;;;10.27;1.47;;;3.10;95.30;;;;;;4383058;32;20208;-64
2021/01/26 01:49:33;;;;;;;11.23;1.90;;;3.10;95.30;;;;;;4378663;32;20200;-64
2021/01/26 01:52:00;;;;;;;7.97;1.80;;;3.00;95.40;;;;;;4394779;32;20174;-65
2021/01/26 01:54:32;;;;;;;14.73;2.57;;;3.00;95.50;;;;;;4391693;32;20170;-66
2021/01/26 01:57:03;;;;;;;13.30;2.30;;;3.00;95.50;;;;;;4391223;32;20275;-65
2021/01/26 01:59:37;;;;;;;18.80;2.60;;;3.10;95.70;;;;;;4405626;32;20231;-65
2021/01/26 02:02:04;;;;;;;15.03;2.47;;;3.20;95.60;;;;;;4400704;32;20232;-65
2021/01/26 02:04:33;;;;;;;14.90;2.10;;;3.20;95.40;;;;;;4387394;32;20655;-65
2021/01/26 02:06:59;;;;;;;12.13;2.30;;;3.10;95.40;;;;;;4386297;32;20195;-65
2021/01/26 02:09:28;;;;;;;13.63;2.10;;;3.20;95.10;;;;;;4402581;32;20664;-65
2021/01/26 02:11:55;;;;;;;11.07;2.20;;;3.10;95.00;;;;;;4403278;32;20176;-65
2021/01/26 02:14:22;;;;;;;5.37;1.40;;;3.10;94.90;;;;;;4403151;32;20287;-65
2021/01/26 02:16:59;;;;;;;9.93;1.80;;;3.20;94.60;;;;;;4401654;32;20179;-66
2021/01/26 02:20:02;;;;;;;11.50;1.90;;;3.20;94.30;;;;;;4401083;32;20586;-65
2021/01/26 02:23:03;;;;;;;8.10;1.70;;;3.10;94.60;;;;;;4314801;33;20208;-64
2021/01/26 02:25:54;;;;;;;6.80;2.17;;;3.10;94.70;;;;;;4317848;33;20207;-64
2021/01/26 02:28:39;;;;;;;8.87;1.63;;;3.10;94.80;;;;;;4316289;33;20245;-64
2021/01/26 02:31:46;;;;;;;13.40;1.83;;;3.00;94.80;;;;;;4320228;33;20231;-64
2021/01/26 02:35:03;;;;;;;18.73;2.57;;;2.90;94.90;;;;;;4314605;33;20161;-64
2021/01/26 02:38:06;;;;;;;19.00;2.03;;;2.90;95.30;;;;;;4279211;33;20174;-65
2021/01/26 02:40:40;;;;;;;13.80;2.00;;;3.00;95.80;;;;;;4274426;33;20163;-64
2021/01/26 02:43:40;;;;;;;10.03;2.00;;;3.10;95.80;;;;;;4284073;33;20218;-65
2021/01/26 02:46:12;;;;;;;8.17;1.80;;;3.20;95.10;;;;;;4280969;33;20185;-64
2021/01/26 02:48:51;;;;;;;8.43;1.60;;;3.20;94.80;;;;;;4284309;33;20670;-64
2021/01/26 02:51:29;;;;;;;10.47;2.10;;;3.00;94.90;;;;;;4283793;33;20261;-64
2021/01/26 02:53:59;;;;;;;11.27;2.13;;;3.10;95.00;;;;;;4282979;33;20173;-64
2021/01/26 02:56:36;;;;;;;9.03;1.63;;;3.00;94.80;;;;;;4278860;33;20193;-64
2021/01/26 02:59:07;;;;;;;6.83;1.47;;;2.90;94.90;;;;;;4312925;33;20165;-64
2021/01/26 03:01:39;;;;;;;12.53;2.23;;;3.10;95.00;;;;;;4340860;33;20188;-64
2021/01/26 03:04:10;;;;;;;15.90;2.73;;;3.00;95.00;;;;;;4354679;33;20224;-64
2021/01/26 03:06:38;;;;;;;9.70;2.30;;;3.00;95.00;;;;;;4341118;33;20268;-64
2021/01/26 03:09:09;;;;;;;10.73;2.10;;;3.00;95.00;;;;;;4342659;33;20196;-64
2021/01/26 03:11:40;;;;;;;13.57;2.33;;;2.90;95.20;;;;;;4343487;33;20225;-64
2021/01/26 03:14:13;;;;;;;14.90;2.33;;;2.90;95.30;;;;;;4218411;32;4961885;-66
2021/01/26 03:16:43;;;;;;;12.97;3.63;;;2.90;95.40;;;;;;4386203;32;20255;-65
2021/01/26 03:19:13;;;;;;;21.70;3.60;;;3.20;95.40;;;;;;4398066;32;20201;-64
2021/01/26 03:21:44;;;;;;;16.63;2.57;;;3.20;95.20;;;;;;4387724;32;20168;-64
2021/01/26 03:24:17;;;;;;;13.77;2.87;;;3.10;95.20;;;;;;4406364;32;20219;-66
2021/01/26 03:26:44;;;;;;;16.07;2.67;;;3.00;95.30;;;;;;4405496;32;20579;-64
2021/01/26 03:29:14;;;;;;;16.00;2.97;;;3.10;95.70;;;;;;4398556;32;20550;-64
2021/01/26 03:31:46;;;;;;;17.60;2.40;;;3.20;95.80;;;;;;4390298;32;20259;-65
2021/01/26 03:34:13;;;;;;;14.03;3.40;;;3.30;95.60;;;;;;4391728;32;20175;-64
2021/01/26 03:36:39;;;;;;;10.70;2.27;;;3.20;95.40;;;;;;4398387;32;20154;-64
2021/01/26 03:39:09;;;;;;;12.70;2.47;;;3.20;95.30;;;;;;4400861;32;20652;-65
2021/01/26 03:41:36;;;;;;;15.10;2.23;;;3.40;95.20;;;;;;4399028;32;20234;-64
2021/01/26 03:44:09;;;;;;;16.57;2.13;;;3.50;95.20;;;;;;4407009;32;20164;-65
2021/01/26 03:46:56;;;;;;;9.63;1.90;;;3.50;94.30;;;;;;4400914;32;20230;-64
2021/01/26 03:49:37;;;;;;;12.63;2.23;;;3.30;94.20;;;;;;4402331;32;20873;-64
2021/01/26 03:52:16;;;;;;;11.17;2.80;;;3.30;94.40;;;;;;4388991;32;20538;-64
2021/01/26 03:54:45;;;;;;;12.50;2.83;;;3.20;94.50;;;;;;4393782;32;20211;-64
2021/01/26 03:57:41;;;;;;;14.83;2.43;;;3.30;94.60;;;;;;4392459;32;20167;-64
2021/01/26 04:00:14;;;;;;;11.10;2.30;;;3.20;94.80;;;;;;4336343;33;20348;-64
2021/01/26 04:02:55;;;;;;;13.30;2.50;;;3.20;94.90;;;;;;4333621;33;20185;-64
2021/01/26 04:05:27;;;;;;;17.63;2.97;;;3.20;95.10;;;;;;4322256;33;20161;-64
2021/01/26 04:08:00;;;;;;;16.27;3.10;;;3.20;95.10;;;;;;4337816;33;20157;-65
2021/01/26 04:10:30;;;;;;;29.20;3.20;;;3.30;95.20;;;;;;4327038;33;20187;-64
2021/01/26 04:13:00;;;;;;;15.87;2.87;;;3.40;95.30;;;;;;4339261;33;20296;-64
2021/01/26 04:15:35;;;;;;;12.50;2.80;;;3.40;95.60;;;;;;4331353;33;20154;-64
2021/01/26 04:18:02;;;;;;;13.97;2.57;;;3.40;95.10;;;;;;4333486;33;20275;-64
2021/01/26 04:20:33;;;;;;;11.13;2.40;;;3.30;95.00;;;;;;4334050;33;20236;-64
2021/01/26 04:23:01;;;;;;;13.30;2.63;;;3.20;95.00;;;;;;4332315;33;20221;-65
2021/01/26 04:25:34;;;;;;;21.23;3.03;;;3.20;95.10;;;;;;4337722;33;20153;-65
2021/01/26 04:28:03;;;;;;;9.43;2.90;;;3.20;95.10;;;;;;4320791;33;20169;-64
2021/01/26 04:30:30;;;;;;;15.27;2.50;;;3.10;95.30;;;;;;4331393;33;20228;-64
2021/01/26 04:33:03;;;;;;;14.97;2.40;;;3.30;95.50;;;;;;4334654;33;20231;-64
2021/01/26 04:35:29;;;;;;;9.03;1.60;;;3.30;95.10;;;;;;4343319;32;20233;-64
2021/01/26 04:37:56;;;;;;;12.20;2.10;;;3.30;94.60;;;;;;4392711;32;20202;-64
2021/01/26 04:40:24;;;;;;;9.43;2.27;;;3.30;94.30;;;;;;4389713;32;20643;-64
2021/01/26 04:42:56;;;;;;;8.57;2.00;;;3.50;93.80;;;;;;4400856;32;20206;-64
2021/01/26 04:45:30;;;;;;;8.23;1.50;;;3.40;93.60;;;;;;4405193;32;20151;-64
2021/01/26 04:48:05;;;;;;;6.20;1.23;;;3.40;93.70;;;;;;4385062;32;20139;-64
2021/01/26 04:50:41;;;;;;;12.97;1.80;;;3.50;93.40;;;;;;4407192;32;20219;-63
2021/01/26 04:53:38;;;;;;;15.77;3.23;;;3.40;93.50;;;;;;4405545;32;20218;-64
2021/01/26 04:56:12;;;;;;;13.57;2.03;;;3.60;93.30;;;;;;4394414;32;20578;-64
2021/01/26 04:59:09;;;;;;;12.13;2.27;;;3.50;93.40;;;;;;4406683;32;20272;-64
2021/01/26 05:02:05;;;;;;;7.67;2.17;;;3.50;93.60;;;;;;4402585;32;20644;-64
2021/01/26 05:04:38;;;;;;;16.17;2.40;;;3.50;93.70;;;;;;4322531;33;20184;-65
2021/01/26 05:07:11;;;;;;;11.17;2.30;;;3.50;94.20;;;;;;4322454;33;20186;-65
2021/01/26 05:09:42;;;;;;;10.70;2.13;;;3.60;94.20;;;;;;4329142;33;20259;-64
2021/01/26 05:12:11;;;;;;;15.43;2.23;;;3.70;94.10;;;;;;4317722;33;20158;-64
2021/01/26 05:14:44;;;;;;;14.00;2.13;;;3.70;94.20;;;;;;4330460;33;20311;-64
2021/01/26 05:17:15;;;;;;;13.40;2.87;;;3.80;94.30;;;;;;4314506;33;20478;-65
2021/01/26 05:19:51;;;;;;;13.90;2.87;;;3.90;94.20;;;;;;4325175;33;20299;-63
2021/01/26 05:22:23;;;;;;;16.33;3.10;;;4.00;94.10;;;;;;4322301;33;20259;-64
2021/01/26 05:24:58;;;;;;;20.47;3.17;;;4.00;94.10;;;;;;4323384;33;20253;-64
2021/01/26 05:27:24;;;;;;;16.90;2.77;;;4.00;94.10;;;;;;4327837;33;20200;-64
2021/01/26 05:29:51;;;;;;;17.43;3.00;;;4.10;94.00;;;;;;4328391;33;20602;-64
2021/01/26 05:32:17;;;;;;;19.97;2.70;;;4.10;94.00;;;;;;4327595;33;20182;-64
2021/01/26 05:34:44;;;;;;;10.63;2.10;;;4.20;93.80;;;;;;4329911;33;20175;-64
2021/01/26 05:37:14;;;;;;;16.13;1.90;;;4.20;93.60;;;;;;4320157;33;20272;-64
2021/01/26 05:39:47;;;;;;;10.97;2.53;;;4.20;93.40;;;;;;4328744;33;20532;-64
2021/01/26 05:42:15;;;;;;;9.93;2.40;;;4.10;93.40;;;;;;4396341;32;20147;-64
2021/01/26 05:44:47;;;;;;;12.13;2.20;;;3.80;93.70;;;;;;4398407;32;20219;-64
2021/01/26 05:47:23;;;;;;;9.10;2.53;;;3.90;93.80;;;;;;4390019;32;20231;-63
2021/01/26 05:49:51;;;;;;;13.20;2.37;;;3.80;94.10;;;;;;4389902;32;20230;-64
2021/01/26 05:52:21;;;;;;;12.37;2.97;;;3.90;94.10;;;;;;4386873;32;20219;-65
2021/01/26 05:54:53;;;;;;;8.20;2.13;;;4.00;94.10;;;;;;4390063;32;20251;-64
2021/01/26 05:57:30;;;;;;;8.03;1.87;;;4.00;94.10;;;;;;4400664;32;20669;-64
2021/01/26 06:00:20;;;;;;;8.77;1.30;;;4.10;94.30;;;;;;4391300;32;20190;-65
2021/01/26 06:02:47;;;;;;;7.40;1.70;;;4.00;94.50;;;;;;4389928;32;20171;-63
2021/01/26 06:05:19;;;;;;;6.07;1.63;;;3.90;94.60;;;;;;4387330;32;20166;-64
2021/01/26 06:08:06;;;;;;;7.63;1.30;;;3.80;94.50;;;;;;4389096;32;20220;-64
2021/01/26 06:10:33;;;;;;;11.43;1.57;;;3.70;94.90;;;;;;4391211;32;20178;-64
2021/01/26 06:13:00;;;;;;;10.73;1.43;;;3.50;94.90;;;;;;4383550;32;20159;-64
2021/01/26 06:15:28;;;;;;;8.87;1.60;;;3.60;95.50;;;;;;4391581;32;20144;-64
2021/01/26 06:18:12;;;;;;;6.80;1.60;;;3.50;95.50;;;;;;4389190;32;20235;-64
2021/01/26 06:20:40;;;;;;;10.07;1.63;;;3.40;95.40;;;;;;4386344;32;20502;-64
2021/01/26 06:23:14;;;;;;;9.83;1.50;;;3.30;95.50;;;;;;4389498;32;20222;-64
2021/01/26 06:25:43;;;;;;;11.53;1.73;;;3.30;95.80;;;;;;4387888;32;20322;-64
2021/01/26 06:28:24;;;;;;;5.57;1.77;;;3.30;96.00;;;;;;4389837;32;20228;-64
2021/01/26 06:30:58;;;;;;;14.00;2.07;;;3.40;96.20;;;;;;4389113;32;20643;-64
2021/01/26 06:33:54;;;;;;;15.97;1.93;;;3.40;96.10;;;;;;4388365;32;20144;-65
2021/01/26 06:36:47;;;;;;;10.77;1.97;;;3.40;96.00;;;;;;4386971;32;20195;-65
2021/01/26 06:39:29;;;;;;;5.80;1.57;;;3.40;95.80;;;;;;4388336;32;20732;-64
2021/01/26 06:42:06;;;;;;;12.10;1.80;;;3.40;95.80;;;;;;4388086;32;20225;-63
2021/01/26 06:44:55;;;;;;;10.40;1.87;;;3.30;95.70;;;;;;4387120;32;20211;-64
2021/01/26 06:47:39;;;;;;;8.60;1.80;;;3.20;95.70;;;;;;4385732;32;20199;-63
2021/01/26 06:50:15;;;;;;;7.50;1.47;;;3.20;95.90;;;;;;4383613;32;20261;-65
2021/01/26 06:52:52;;;;;;;10.43;1.70;;;3.20;96.20;;;;;;4390792;32;20159;-64
2021/01/26 06:55:32;;;;;;;13.40;1.90;;;3.40;96.50;;;;;;4390382;32;20606;-66
2021/01/26 06:58:32;;;;;;;7.03;1.80;;;3.50;96.50;;;;;;4394312;32;20193;-64
2021/01/26 07:01:30;;;;;;;9.27;2.10;;;3.60;96.10;;;;;;4389492;32;20179;-66
2021/01/26 07:04:13;;;;;;;8.77;1.70;;;3.70;95.70;;;;;;4391522;32;20230;-63
2021/01/26 07:07:21;;;;;;;12.03;1.80;;;3.70;95.40;;;;;;4385139;32;20245;-64
2021/01/26 07:10:08;;;;;;;7.60;1.83;;;3.80;95.40;;;;;;4314582;33;20770;-64
2021/01/26 07:12:57;;;;;;;7.90;2.13;;;3.80;95.00;;;;;;4312953;33;20308;-64
2021/01/26 07:15:32;;;;;;;8.00;1.83;;;3.80;94.90;;;;;;4314740;33;20240;-65
2021/01/26 07:18:22;;;;;;;6.37;1.70;;;3.70;95.00;;;;;;4311858;33;20246;-64
2021/01/26 07:20:59;;;;;;;4.40;1.90;;;3.70;95.00;;;;;;4311941;33;20233;-64
2021/01/26 07:23:47;;;;;;;9.70;2.43;;;3.60;95.10;;;;;;4313956;33;20292;-65
2021/01/26 07:26:47;;;;;;;14.27;2.67;;;3.60;95.20;;;;;;4315550;33;20271;-63
2021/01/26 07:29:43;;;;;;;10.10;2.30;;;3.60;95.40;;;;;;4263976;33;20230;-64
2021/01/26 07:32:16;;;;;;;14.33;1.70;;;3.80;95.50;;;;;;4208533;34;20672;-64
2021/01/26 07:34:52;;;;;;;7.80;1.87;;;3.80;95.40;;;;;;4208623;34;20243;-64
2021/01/26 07:37:22;;;;;;;5.10;1.57;;;3.90;95.30;;;;;;4206805;34;20160;-65
2021/01/26 07:39:56;;;;;;;11.10;2.33;;;4.00;95.20;;;;;;4211533;34;20634;-64
2021/01/26 07:42:27;;;;;;;10.87;2.20;;;4.00;95.00;;;;;;4206007;34;20626;-65
2021/01/26 07:45:02;;;;;;;8.17;2.80;;;3.80;94.70;;;;;;4215024;33;20235;-63
2021/01/26 07:47:34;;;;;;;7.33;2.40;;;3.70;94.80;;;;;;4271638;33;20249;-65
2021/01/26 07:50:07;;;;;;;8.37;1.80;;;3.60;95.00;;;;;;4271680;33;20192;-63
2021/01/26 07:52:39;;;;;;;9.57;1.93;;;3.50;95.10;;;;;;4267306;33;20815;-63
2021/01/26 07:55:22;;;;;;;17.23;2.90;;;3.50;95.40;;;;;;4270467;33;20214;-64
2021/01/26 07:57:57;;;;;;;11.83;2.13;;;3.50;95.70;;;;;;4271954;33;20246;-64
2021/01/26 08:00:28;;;;;;;12.17;2.17;;;3.50;95.80;;;;;;4266893;33;20166;-63
2021/01/26 08:02:57;;;;;;;14.23;2.53;;;3.60;95.80;;;;;;4267961;33;20187;-64
2021/01/26 08:05:40;;;;;;;8.83;1.70;;;3.70;95.70;;;;;;4289016;33;20169;-63
2021/01/26 08:08:09;;;;;;;5.93;1.60;;;3.90;95.60;;;;;;4341842;32;20169;-64
2021/01/26 08:10:36;;;;;;;10.70;1.87;;;4.00;95.00;;;;;;4375701;32;20477;-64
2021/01/26 08:13:04;;;;;;;7.00;1.30;;;4.00;94.50;;;;;;4372790;32;20229;-65
2021/01/26 08:15:32;;;;;;;6.73;1.60;;;4.20;94.60;;;;;;4371043;32;20608;-64
2021/01/26 08:18:16;;;;;;;5.40;1.50;;;4.20;94.40;;;;;;4396431;32;20220;-65
2021/01/26 08:20:43;;;;;;;11.13;1.60;;;4.30;93.80;;;;;;4395251;32;20160;-65
2021/01/26 08:23:20;;;;;;;3.57;1.37;;;4.00;94.10;;;;;;4392035;32;20172;-64
2021/01/26 08:25:50;;;;;;;11.43;2.10;;;4.10;94.30;;;;;;4393273;32;20158;-64
2021/01/26 08:28:45;;;;;;;10.13;2.43;;;4.40;93.70;;;;;;4395937;32;20169;-62
2021/01/26 08:31:27;;;;;;;5.43;1.27;;;4.50;93.50;;;;;;4397920;32;20168;-63
2021/01/26 08:33:56;;;;;;;9.67;1.77;;;4.60;93.20;;;;;;4391192;32;20148;-63
2021/01/26 08:36:33;;;;;;;7.87;1.40;;;4.70;93.40;;;;;;4390857;32;20175;-63
2021/01/26 08:39:05;;;;;;;4.87;1.30;;;4.80;93.30;;;;;;4390798;32;20552;-63
2021/01/26 08:41:50;;;;;;;3.70;1.00;;;5.10;92.30;;;;;;4387704;32;20443;-66
2021/01/26 08:44:52;;;;;;;8.00;1.20;;;5.10;91.60;;;;;;4377865;32;20155;-64
2021/01/26 08:47:50;;;;;;;4.53;1.00;;;5.10;91.40;;;;;;4382810;32;20166;-64
2021/01/26 08:50:27;;;;;;;4.80;1.10;;;5.10;90.90;;;;;;4393227;32;20159;-63
2021/01/26 08:53:13;;;;;;;4.77;1.00;;;5.10;90.90;;;;;;4404354;32;20205;-62
2021/01/26 08:55:41;;;;;;;5.60;1.33;;;5.00;90.90;;;;;;4393102;32;20193;-64
2021/01/26 08:58:12;;;;;;;7.63;1.20;;;4.90;91.30;;;;;;4395491;32;20185;-63
2021/01/26 09:00:49;;;;;;;3.83;1.37;;;4.90;91.70;;;;;;4390652;32;20599;-64
2021/01/26 09:03:30;;;;;;;4.73;1.57;;;4.90;92.00;;;;;;4392250;32;20144;-64
2021/01/26 09:06:00;;;;;;;6.77;1.90;;;4.90;92.30;;;;;;4388326;32;20148;-66
2021/01/26 09:09:00;;;;;;;12.40;1.50;;;5.00;92.40;;;;;;4388822;32;20144;-65
2021/01/26 09:11:33;;;;;;;6.93;2.33;;;4.90;92.40;;;;;;4390213;32;20210;-64
2021/01/26 09:14:27;;;;;;;5.10;1.40;;;5.10;92.50;;;;;;4386800;32;20142;-64
2021/01/26 09:17:02;;;;;;;6.17;1.50;;;5.00;92.50;;;;;;4385318;32;20208;-63
2021/01/26 09:19:32;;;;;;;11.57;1.70;;;5.00;92.20;;;;;;4388976;32;20297;-65
2021/01/26 09:22:06;;;;;;;7.87;1.80;;;5.10;92.40;;;;;;4389636;32;20167;-66
2021/01/26 09:24:36;;;;;;;6.23;1.80;;;5.20;92.50;;;;;;4389286;32;20261;-63
2021/01/26 09:27:16;;;;;;;5.83;1.43;;;5.30;92.10;;;;;;4389091;32;20199;-63
2021/01/26 09:29:43;;;;;;;14.30;2.17;;;5.40;92.00;;;;;;4388339;32;20196;-64
2021/01/26 09:32:11;;;;;;;7.03;1.60;;;5.40;91.80;;;;;;4388753;32;20144;-64
2021/01/26 09:34:37;;;;;;;5.93;1.90;;;5.50;91.70;;;;;;4385513;32;20157;-65
2021/01/26 09:37:23;;;;;;;9.87;2.67;;;5.60;91.60;;;;;;4389756;32;20205;-64
2021/01/26 09:39:50;;;;;;;4.03;1.50;;;5.60;91.20;;;;;;4387896;32;20159;-64
2021/01/26 09:42:22;;;;;;;5.17;1.33;;;5.70;90.80;;;;;;4392688;32;20151;-65
2021/01/26 09:44:59;;;;;;;6.70;1.80;;;5.70;90.90;;;;;;4392295;32;20174;-62
2021/01/26 09:47:28;;;;;;;9.33;1.73;;;5.80;91.30;;;;;;4389735;32;20159;-64
2021/01/26 09:50:06;;;;;;;10.00;1.60;;;5.90;91.00;;;;;;4391022;32;20144;-64
2021/01/26 09:52:32;;;;;;;12.00;2.60;;;6.00;90.50;;;;;;4387379;32;20637;-64
2021/01/26 09:55:07;;;;;;;12.87;2.53;;;6.00;90.40;;;;;;4388489;32;20156;-65
2021/01/26 09:57:38;;;;;;;8.27;1.30;;;5.90;90.60;;;;;;4388515;32;20152;-65
2021/01/26 10:00:08;;;;;;;11.97;1.97;;;6.00;90.20;;;;;;4383589;32;20179;-65
2021/01/26 10:02:35;;;;;;;10.97;1.87;;;6.00;90.70;;;;;;4387778;32;20487;-64
2021/01/26 10:05:07;;;;;;;10.27;2.03;;;6.00;90.20;;;;;;4387197;32;20175;-65
2021/01/26 10:07:33;;;;;;;8.43;1.97;;;6.10;89.80;;;;;;4388554;32;20180;-66
2021/01/26 10:10:13;;;;;;;7.40;2.03;;;6.20;90.00;;;;;;4388992;32;20155;-65
2021/01/26 10:12:47;;;;;;;11.43;1.80;;;6.20;90.00;;;;;;4387391;32;20164;-64
2021/01/26 10:15:33;;;;;;;12.87;1.83;;;6.10;88.90;;;;;;4388570;32;20178;-67
2021/01/26 10:18:15;;;;;;;9.43;1.70;;;6.30;88.50;;;;;;4372243;32;20148;-66
2021/01/26 10:20:58;;;;;;;7.23;1.73;;;6.50;88.50;;;;;;4372436;32;20260;-65
2021/01/26 10:23:29;;;;;;;8.97;1.50;;;6.80;87.80;;;;;;4372081;32;20231;-64
2021/01/26 10:26:22;;;;;;;8.43;1.70;;;6.90;86.20;;;;;;4370462;32;20592;-64
2021/01/26 10:29:01;;;;;;;6.57;1.30;;;6.80;86.20;;;;;;4371998;32;20651;-65
2021/01/26 10:31:48;;;;;;;7.00;1.40;;;6.60;87.50;;;;;;4366072;32;20163;-64
2021/01/26 10:34:33;;;;;;;7.27;1.60;;;6.70;88.60;;;;;;4362490;32;20152;-67
2021/01/26 10:37:17;;;;;;;7.70;1.87;;;6.80;88.70;;;;;;4362109;32;20170;-64
2021/01/26 10:39:44;;;;;;;5.87;1.03;;;6.90;88.30;;;;;;4365874;32;20208;-65
2021/01/26 10:42:18;;;;;;;5.57;1.40;;;6.80;86.70;;;;;;4364440;32;20230;-64
2021/01/26 10:44:46;;;;;;;3.70;1.10;;;6.70;87.80;;;;;;4366509;32;20265;-67
2021/01/26 10:47:27;;;;;;;9.87;1.83;;;6.70;88.70;;;;;;4365374;32;20653;-64
2021/01/26 10:49:57;;;;;;;9.43;1.47;;;6.90;87.20;;;;;;4361335;32;20144;-66
2021/01/26 10:52:40;;;;;;;6.37;1.53;;;6.70;87.40;;;;;;4366741;32;20235;-65
2021/01/26 10:55:10;;;;;;;7.80;1.80;;;6.90;87.60;;;;;;4365669;32;20480;-65
2021/01/26 10:57:36;;;;;;;4.40;1.23;;;6.90;87.90;;;;;;4365675;32;20183;-65
2021/01/26 11:00:06;;;;;;;7.00;1.53;;;6.90;88.00;;;;;;4363289;32;20158;-67
2021/01/26 11:02:32;;;;;;;9.20;1.87;;;6.70;87.70;;;;;;4365646;32;20183;-64
2021/01/26 11:05:00;;;;;;;13.00;1.97;;;6.60;89.10;;;;;;4372940;32;20576;-66
2021/01/26 11:07:26;;;;;;;10.93;2.10;;;6.50;89.60;;;;;;4373240;32;20163;-65
2021/01/26 11:09:52;;;;;;;9.70;2.33;;;6.60;90.00;;;;;;4373807;32;20215;-65
2021/01/26 11:12:19;;;;;;;10.90;2.40;;;6.80;90.00;;;;;;4373842;32;20649;-65
2021/01/26 11:14:45;;;;;;;7.80;2.33;;;6.80;88.20;;;;;;4369055;32;20164;-67
2021/01/26 11:17:12;;;;;;;8.30;2.43;;;6.80;88.00;;;;;;4378636;32;20322;-68
2021/01/26 11:19:41;;;;;;;5.07;1.50;;;6.70;89.20;;;;;;4380374;32;20152;-64
2021/01/26 11:22:34;;;;;;;8.83;2.13;;;6.70;88.60;;;;;;4379654;32;20211;-64
2021/01/26 11:25:01;;;;;;;9.57;1.50;;;6.90;88.30;;;;;;4335423;33;20157;-66
2021/01/26 11:27:27;;;;;;;10.63;1.73;;;7.00;85.50;;;;;;4335701;33;20246;-68
2021/01/26 11:29:54;;;;;;;3.37;1.00;;;7.20;84.20;;;;;;4337025;33;20240;-67
2021/01/26 11:32:20;;;;;;;5.53;1.10;;;7.30;84.00;;;;;;4334852;33;20192;-64
2021/01/26 11:34:47;;;;;;;7.90;1.50;;;7.30;83.00;;;;;;4336850;33;20586;-68
2021/01/26 11:37:13;;;;;;;6.63;1.50;;;7.30;84.60;;;;;;4337105;33;20612;-64
2021/01/26 11:39:40;;;;;;;6.87;1.67;;;7.10;84.20;;;;;;4336365;33;20244;-65
2021/01/26 11:42:07;;;;;;;2.13;0.90;;;7.00;83.90;;;;;;4338526;33;20177;-66
2021/01/26 11:44:34;;;;;;;2.97;1.10;;;6.80;84.90;;;;;;4339748;33;20164;-65
2021/01/26 11:47:01;;;;;;;5.03;1.10;;;6.80;84.50;;;;;;4340125;33;20161;-66
2021/01/26 11:49:27;;;;;;;2.70;1.07;;;6.80;85.10;;;;;;4337948;33;20256;-66
2021/01/26 11:51:53;;;;;;;4.13;1.20;;;6.80;85.10;;;;;;4338258;33;20256;-65
2021/01/26 11:54:20;;;;;;;7.73;1.13;;;6.70;85.10;;;;;;4338884;33;20152;-67
2021/01/26 11:56:47;;;;;;;6.13;1.10;;;6.60;85.10;;;;;;4381954;32;20187;-66
2021/01/26 11:59:14;;;;;;;5.87;1.20;;;6.50;85.60;;;;;;4380717;32;20740;-67
2021/01/26 12:01:40;;;;;;;5.27;1.40;;;6.40;85.50;;;;;;4377615;32;20234;-65
2021/01/26 12:04:06;;;;;;;3.47;0.77;;;6.40;85.30;;;;;;4380870;32;20274;-65
2021/01/26 12:06:33;;;;;;;4.33;1.10;;;6.50;85.30;;;;;;4381403;32;20210;-65
2021/01/26 12:08:59;;;;;;;5.47;1.10;;;6.50;85.50;;;;;;4383248;32;20257;-66
2021/01/26 12:11:26;;;;;;;4.80;1.33;;;6.60;85.60;;;;;;4381345;32;20152;-66
2021/01/26 12:13:53;;;;;;;5.43;0.93;;;6.70;86.60;;;;;;4379941;32;20194;-64
2021/01/26 12:16:19;;;;;;;6.33;1.07;;;6.90;85.50;;;;;;4382632;32;20585;-64
2021/01/26 12:18:46;;;;;;;2.97;1.00;;;7.00;84.40;;;;;;4376508;32;20245;-64
2021/01/26 12:21:13;;;;;;;1.87;1.10;;;7.10;84.70;;;;;;4379795;32;20569;-65
2021/01/26 12:23:42;;;;;;;4.37;0.90;;;7.20;85.00;;;;;;4383563;32;20460;-64
2021/01/26 12:26:08;;;;;;;8.10;1.27;;;7.10;83.70;;;;;;4381125;32;20144;-66
2021/01/26 12:28:35;;;;;;;3.73;1.20;;;7.20;84.40;;;;;;4383350;32;20215;-66
2021/01/26 12:31:02;;;;;;;4.87;0.97;;;7.40;83.90;;;;;;4381706;32;20171;-67
2021/01/26 12:33:29;;;;;;;3.67;1.07;;;7.50;83.70;;;;;;4381693;32;20606;-66
2021/01/26 12:35:55;;;;;;;2.10;1.00;;;7.70;82.00;;;;;;4382537;32;20167;-66
2021/01/26 12:38:21;;;;;;;4.40;1.30;;;7.60;81.80;;;;;;4379526;32;20257;-64
2021/01/26 12:40:48;;;;;;;3.27;0.83;;;7.60;81.10;;;;;;4381771;32;20168;-65
2021/01/26 12:43:14;;;;;;;4.90;1.70;;;7.50;81.40;;;;;;4380308;32;20144;-65
2021/01/26 12:45:41;;;;;;;4.50;1.53;;;7.30;82.90;;;;;;4381895;32;20164;-65
2021/01/26 12:48:08;;;;;;;6.60;1.07;;;7.20;83.30;;;;;;4377927;32;20227;-65
2021/01/26 12:50:37;;;;;;;4.07;0.80;;;7.10;82.50;;;;;;4379427;32;20175;-65
2021/01/26 12:53:04;;;;;;;3.23;1.00;;;7.20;82.60;;;;;;4380189;32;20496;-65
2021/01/26 12:55:30;;;;;;;2.03;1.00;;;7.10;83.60;;;;;;4377485;32;20513;-65
2021/01/26 12:57:57;;;;;;;4.97;1.50;;;7.10;84.80;;;;;;4381117;32;20235;-64
2021/01/26 13:00:25;;;;;;;5.60;1.50;;;7.30;84.10;;;;;;4379630;32;20494;-64
2021/01/26 13:02:53;;;;;;;3.27;1.63;;;7.30;84.20;;;;;;4380462;32;20187;-64
2021/01/26 13:05:22;;;;;;;4.70;1.47;;;7.40;83.80;;;;;;4379811;32;20214;-64
2021/01/26 13:07:51;;;;;;;6.07;1.77;;;7.30;84.20;;;;;;4380994;32;20281;-66
2021/01/26 13:10:18;;;;;;;6.60;1.83;;;7.20;84.40;;;;;;4381298;32;20148;-65
2021/01/26 13:12:45;;;;;;;8.27;2.57;;;7.10;85.10;;;;;;4382099;32;20156;-66
2021/01/26 13:15:13;;;;;;;8.67;1.83;;;7.10;85.70;;;;;;4377837;32;20176;-66
2021/01/26 13:17:42;;;;;;;4.43;1.90;;;6.90;86.00;;;;;;4382293;32;20182;-65
2021/01/26 13:20:10;;;;;;;5.50;2.30;;;6.90;86.30;;;;;;4381778;32;20500;-65
2021/01/26 13:22:40;;;;;;;14.60;2.47;;;7.00;86.50;;;;;;4379012;32;20210;-65
2021/01/26 13:25:08;;;;;;;7.47;2.70;;;6.90;85.60;;;;;;4383117;32;20492;-66